Time;durP1;ratioP1;P1;durP2;ratioP2;P2;SDS_P1;SDS_P2;PMS_P1;PMS_P2;Temp;Humidity;BMP_temperature;BMP_pressure;BME280_temperature;BME280_humidity;BME280_pressure;Samples;Min_cycle;Max_cycle;Signal;HPM_P1;HPM_P2
2022/11/12 00:00:40;;;;;;;13.90;8.88;;;7.60;99.90;;;;;;5093944;28;20119;-60
2022/11/12 00:03:06;;;;;;;15.75;8.77;;;7.60;99.90;;;;;;5094207;28;20032;-60
2022/11/12 00:05:32;;;;;;;12.63;8.98;;;7.70;99.90;;;;;;5093889;28;20036;-60
2022/11/12 00:07:58;;;;;;;10.32;7.90;;;7.60;99.90;;;;;;5093855;28;20548;-60
2022/11/12 00:10:23;;;;;;;14.13;8.80;;;7.60;99.90;;;;;;5093759;28;20032;-60
2022/11/12 00:12:49;;;;;;;12.93;8.25;;;7.50;99.90;;;;;;5093942;28;20497;-60
2022/11/12 00:15:15;;;;;;;11.27;8.20;;;7.50;99.90;;;;;;5093715;28;20028;-60
2022/11/12 00:17:41;;;;;;;10.55;8.75;;;7.50;99.90;;;;;;5093843;28;20043;-60
2022/11/12 00:20:07;;;;;;;12.10;8.30;;;7.50;99.90;;;;;;5093671;28;20119;-60
2022/11/12 00:22:33;;;;;;;13.88;8.50;;;7.50;99.90;;;;;;5093617;28;20032;-60
2022/11/12 00:24:58;;;;;;;11.02;7.63;;;7.40;99.90;;;;;;5075364;28;20047;-60
2022/11/12 00:27:24;;;;;;;10.73;8.20;;;7.40;99.90;;;;;;5093606;28;20071;-60
2022/11/12 00:29:50;;;;;;;18.70;8.98;;;7.40;99.90;;;;;;5093604;28;20046;-60
2022/11/12 00:32:15;;;;;;;12.75;8.60;;;7.50;99.90;;;;;;5093304;28;20044;-60
2022/11/12 00:34:41;;;;;;;14.52;9.10;;;7.40;99.90;;;;;;5092775;28;20040;-60
2022/11/12 00:37:07;;;;;;;13.32;7.80;;;7.50;99.90;;;;;;5093345;28;20500;-60
2022/11/12 00:39:32;;;;;;;15.68;8.68;;;7.40;99.90;;;;;;5092645;28;20036;-60
2022/11/12 00:41:58;;;;;;;12.73;8.70;;;7.40;99.90;;;;;;5091214;28;20035;-60
2022/11/12 00:44:24;;;;;;;12.68;8.23;;;7.50;99.90;;;;;;5072295;28;20131;-60
2022/11/12 00:46:49;;;;;;;17.80;9.48;;;7.50;99.90;;;;;;5072741;28;20040;-60
2022/11/12 00:49:15;;;;;;;21.20;8.95;;;7.40;99.90;;;;;;5072890;28;20036;-60
2022/11/12 00:51:41;;;;;;;15.10;9.15;;;7.40;99.90;;;;;;5072846;28;20147;-60
2022/11/12 00:54:07;;;;;;;11.85;7.95;;;7.30;99.90;;;;;;5072698;28;20044;-60
2022/11/12 00:56:33;;;;;;;13.10;8.63;;;7.30;99.90;;;;;;5076874;28;20048;-60
2022/11/12 00:58:59;;;;;;;15.98;8.65;;;7.30;99.90;;;;;;5093139;28;20044;-60
2022/11/12 01:01:26;;;;;;;10.32;7.38;;;7.10;99.90;;;;;;5073780;28;20048;-60
2022/11/12 01:03:51;;;;;;;12.70;7.72;;;7.10;99.90;;;;;;5092889;28;20078;-59
2022/11/12 01:06:21;;;;;;;12.00;7.78;;;7.10;99.90;;;;;;5092807;28;20076;-60
2022/11/12 01:08:48;;;;;;;12.55;8.50;;;7.10;99.90;;;;;;5092588;28;20093;-60
2022/11/12 01:11:28;;;;;;;13.32;8.40;;;7.10;99.90;;;;;;5091168;28;20100;-60
2022/11/12 01:13:59;;;;;;;26.95;9.52;;;7.00;99.90;;;;;;5091188;28;20047;-60
2022/11/12 01:16:28;;;;;;;15.48;9.35;;;7.10;99.90;;;;;;5092038;28;20032;-60
2022/11/12 01:18:57;;;;;;;13.18;7.88;;;7.00;99.90;;;;;;5092536;28;20033;-60
2022/11/12 01:21:25;;;;;;;11.40;7.97;;;7.00;99.90;;;;;;5092398;28;20115;-60
2022/11/12 01:23:50;;;;;;;15.77;8.95;;;7.00;99.90;;;;;;5092328;28;20040;-60
2022/11/12 01:26:18;;;;;;;10.80;8.60;;;7.00;99.90;;;;;;5092501;28;20047;-60
2022/11/12 01:28:44;;;;;;;17.60;10.02;;;7.10;99.90;;;;;;5092371;28;20474;-60
2022/11/12 01:31:16;;;;;;;17.30;9.30;;;7.00;99.90;;;;;;5092246;28;20043;-60
2022/11/12 01:33:44;;;;;;;15.73;10.05;;;7.10;99.90;;;;;;5092343;28;20036;-59
2022/11/12 01:36:11;;;;;;;13.03;8.83;;;6.90;99.90;;;;;;5092483;28;20475;-60
2022/11/12 01:38:39;;;;;;;15.90;9.40;;;7.00;99.90;;;;;;5092418;28;20036;-60
2022/11/12 01:41:07;;;;;;;14.60;9.60;;;7.00;99.90;;;;;;5090567;28;20040;-60
2022/11/12 01:43:32;;;;;;;15.43;9.40;;;6.90;99.90;;;;;;5089978;28;20489;-60
2022/11/12 01:46:04;;;;;;;13.43;10.02;;;6.90;99.90;;;;;;5091225;28;20119;-60
2022/11/12 01:48:47;;;;;;;14.35;9.70;;;7.00;99.90;;;;;;5092519;28;20040;-59
2022/11/12 01:51:14;;;;;;;12.07;9.32;;;7.10;99.90;;;;;;5092033;28;20090;-60
2022/11/12 01:53:43;;;;;;;14.05;9.57;;;6.90;99.90;;;;;;5091990;28;20040;-60
2022/11/12 01:56:10;;;;;;;15.57;9.60;;;6.90;99.90;;;;;;5091845;28;20043;-60
2022/11/12 01:58:38;;;;;;;17.27;10.25;;;7.00;99.90;;;;;;5091906;28;20051;-60
2022/11/12 02:01:04;;;;;;;12.57;9.52;;;6.90;99.90;;;;;;5092076;28;20464;-60
2022/11/12 02:03:30;;;;;;;13.73;10.30;;;6.90;99.90;;;;;;5091992;28;20046;-60
2022/11/12 02:06:01;;;;;;;14.02;9.50;;;6.80;99.90;;;;;;5091842;28;20036;-60
2022/11/12 02:08:28;;;;;;;13.35;9.55;;;6.80;99.90;;;;;;5091884;28;20042;-60
2022/11/12 02:10:54;;;;;;;12.30;8.80;;;6.80;99.90;;;;;;5091469;28;20036;-60
2022/11/12 02:16:06;;;;;;;12.93;9.63;;;6.70;99.90;;;;;;5091983;28;20044;-60
2022/11/12 02:18:32;;;;;;;16.02;11.13;;;6.70;99.90;;;;;;5091991;28;20470;-60
2022/11/12 02:21:03;;;;;;;15.35;11.05;;;6.70;99.90;;;;;;5091580;28;20070;-60
2022/11/12 02:23:31;;;;;;;18.60;10.57;;;6.70;99.90;;;;;;5091585;28;20390;-60
2022/11/12 02:25:59;;;;;;;13.18;9.45;;;6.70;99.90;;;;;;5091655;28;20382;-60
2022/11/12 02:28:24;;;;;;;13.88;10.43;;;6.70;99.90;;;;;;5091851;28;20044;-60
2022/11/12 02:30:50;;;;;;;14.43;10.00;;;6.60;99.90;;;;;;5091522;28;20115;-60
2022/11/12 02:33:16;;;;;;;12.55;9.95;;;6.60;99.90;;;;;;5091559;28;20043;-60
2022/11/12 02:35:42;;;;;;;16.00;10.38;;;6.60;99.90;;;;;;5091499;28;20102;-60
2022/11/12 02:38:08;;;;;;;14.75;9.60;;;6.60;99.90;;;;;;5091562;28;20046;-60
2022/11/12 02:40:34;;;;;;;14.85;9.55;;;6.60;99.90;;;;;;5091796;28;20036;-60
2022/11/12 02:43:00;;;;;;;12.50;9.43;;;6.60;99.90;;;;;;5091737;28;20040;-60
2022/11/12 02:45:26;;;;;;;13.25;9.13;;;6.60;99.90;;;;;;5091610;28;20147;-60
2022/11/12 02:47:52;;;;;;;16.48;10.70;;;6.60;99.90;;;;;;5091557;28;20036;-60
2022/11/12 02:50:18;;;;;;;13.57;9.48;;;6.60;99.90;;;;;;5091472;28;20036;-60
2022/11/12 02:52:44;;;;;;;16.67;10.52;;;6.50;99.90;;;;;;5091384;28;20040;-61
2022/11/12 02:55:11;;;;;;;13.15;9.82;;;6.80;99.90;;;;;;5091595;28;20093;-60
2022/11/12 02:57:38;;;;;;;14.43;10.85;;;6.50;99.90;;;;;;5094127;28;20063;-60
2022/11/12 03:00:07;;;;;;;15.32;10.10;;;6.40;99.90;;;;;;5095421;28;20119;-60
2022/11/12 03:02:33;;;;;;;12.88;10.05;;;6.40;99.90;;;;;;5095313;28;20066;-60
2022/11/12 03:04:58;;;;;;;17.15;10.98;;;6.40;99.90;;;;;;5095189;28;20486;-60
2022/11/12 03:07:24;;;;;;;13.82;10.60;;;6.40;99.90;;;;;;5094984;28;20105;-60
2022/11/12 03:09:50;;;;;;;15.00;10.27;;;6.40;99.90;;;;;;5095106;28;20051;-60
2022/11/12 03:12:15;;;;;;;14.73;10.45;;;6.30;99.90;;;;;;5095007;28;20036;-60
2022/11/12 03:14:41;;;;;;;13.43;10.15;;;6.40;99.90;;;;;;5095081;28;20390;-61
2022/11/12 03:17:07;;;;;;;13.68;11.43;;;6.40;99.90;;;;;;5094990;28;20051;-60
2022/11/12 03:19:32;;;;;;;18.60;12.88;;;6.40;99.90;;;;;;5095221;28;20048;-60
2022/11/12 03:21:58;;;;;;;15.90;11.82;;;6.40;99.90;;;;;;5095283;28;20047;-60
2022/11/12 03:24:24;;;;;;;15.63;11.23;;;6.40;99.90;;;;;;5094999;28;20496;-60
2022/11/12 03:26:49;;;;;;;17.65;11.35;;;6.40;99.90;;;;;;5094934;28;20375;-60
2022/11/12 03:29:15;;;;;;;17.13;11.35;;;6.30;99.90;;;;;;5094731;28;20106;-60
2022/11/12 03:31:41;;;;;;;15.35;10.52;;;6.30;99.90;;;;;;5094605;28;20042;-61
2022/11/12 03:34:06;;;;;;;15.43;11.40;;;6.30;99.90;;;;;;5094750;28;20098;-60
2022/11/12 03:36:32;;;;;;;19.42;11.35;;;6.30;99.90;;;;;;5076661;28;20054;-60
2022/11/12 03:38:58;;;;;;;16.85;11.43;;;6.30;99.90;;;;;;5094779;28;20064;-60
2022/11/12 03:41:23;;;;;;;16.15;11.73;;;6.20;99.90;;;;;;5094572;28;20043;-60
2022/11/12 03:43:49;;;;;;;15.80;11.38;;;6.30;99.90;;;;;;5094518;28;20039;-60
2022/11/12 03:46:14;;;;;;;15.50;11.63;;;6.30;99.90;;;;;;5094417;28;20371;-60
2022/11/12 03:48:40;;;;;;;16.52;12.07;;;6.20;99.90;;;;;;5094358;28;20040;-60
2022/11/12 03:51:05;;;;;;;19.17;11.77;;;6.30;99.90;;;;;;5094266;28;20047;-60
2022/11/12 03:53:31;;;;;;;14.38;11.68;;;6.30;99.90;;;;;;5094202;28;20395;-60
2022/11/12 03:55:57;;;;;;;15.75;11.48;;;6.30;99.90;;;;;;5094681;28;20040;-60
2022/11/12 03:58:22;;;;;;;18.23;12.57;;;6.30;99.90;;;;;;5094283;28;20052;-60
2022/11/12 04:00:48;;;;;;;16.33;11.07;;;6.30;99.90;;;;;;5094150;28;20492;-60
2022/11/12 04:03:13;;;;;;;13.63;11.18;;;6.30;99.90;;;;;;5094173;28;20044;-60
2022/11/12 04:08:36;;;;;;;14.27;11.32;;;6.20;99.90;;;;;;5094231;28;20040;-60
2022/11/12 04:11:11;;;;;;;15.27;12.23;;;6.30;99.90;;;;;;5094144;28;20036;-60
2022/11/12 04:13:38;;;;;;;16.00;11.77;;;6.20;99.90;;;;;;5093815;28;20040;-60
2022/11/12 04:21:57;;;;;;;15.63;11.48;;;6.00;99.90;;;;;;5093978;28;20050;-60
2022/11/12 04:27:31;;;;;;;15.80;11.45;;;6.00;99.90;;;;;;5093716;28;20044;-60
2022/11/12 04:30:17;;;;;;;16.17;11.98;;;6.10;99.90;;;;;;5093633;28;20054;-60
2022/11/12 04:32:54;;;;;;;15.65;10.75;;;6.00;99.90;;;;;;5093711;28;20048;-60
2022/11/12 04:35:22;;;;;;;14.48;11.40;;;6.00;99.90;;;;;;5093498;28;20051;-60
2022/11/12 04:37:47;;;;;;;15.68;11.60;;;6.00;99.90;;;;;;5093608;28;20082;-60
2022/11/12 04:45:47;;;;;;;15.55;11.88;;;5.90;99.90;;;;;;5075269;28;20044;-60
2022/11/12 04:48:13;;;;;;;14.95;11.60;;;5.90;99.90;;;;;;5075165;28;20079;-60
2022/11/12 04:50:40;;;;;;;14.60;11.90;;;6.00;99.90;;;;;;5093214;28;20039;-60
2022/11/12 04:53:06;;;;;;;15.90;11.77;;;6.10;99.90;;;;;;5093107;28;20501;-60
2022/11/12 04:55:31;;;;;;;20.77;13.50;;;6.10;99.90;;;;;;5093045;28;20040;-60
2022/11/12 04:57:57;;;;;;;16.52;13.32;;;6.00;99.90;;;;;;5092869;28;20063;-60
2022/11/12 05:00:23;;;;;;;17.05;12.68;;;6.00;99.90;;;;;;5093105;28;20070;-60
2022/11/12 05:02:49;;;;;;;15.63;12.93;;;5.90;99.90;;;;;;5093036;28;20040;-60
2022/11/12 05:05:15;;;;;;;17.55;12.50;;;6.00;99.90;;;;;;5093370;28;20118;-60
2022/11/12 05:07:40;;;;;;;21.63;14.90;;;6.00;99.90;;;;;;5093227;28;20478;-60
2022/11/12 05:10:07;;;;;;;17.50;12.82;;;6.00;99.90;;;;;;5093155;28;20043;-60
2022/11/12 05:12:33;;;;;;;19.80;14.27;;;6.00;99.90;;;;;;5092849;28;20044;-60
2022/11/12 05:14:58;;;;;;;21.77;15.30;;;6.00;99.90;;;;;;5092806;28;20115;-60
2022/11/12 05:17:24;;;;;;;21.45;15.15;;;6.10;99.90;;;;;;5092974;28;20047;-60
2022/11/12 05:19:49;;;;;;;17.30;13.63;;;6.20;99.90;;;;;;5092260;28;20111;-60
2022/11/12 05:22:15;;;;;;;20.33;14.90;;;6.10;99.90;;;;;;5092604;28;20125;-60
2022/11/12 05:24:43;;;;;;;23.13;14.60;;;6.20;99.90;;;;;;5092510;28;20394;-60
2022/11/12 05:27:18;;;;;;;20.25;15.73;;;6.20;99.90;;;;;;5092429;28;20115;-60
2022/11/12 05:29:44;;;;;;;20.10;15.57;;;6.30;99.90;;;;;;5092658;28;20031;-60
2022/11/12 05:32:14;;;;;;;19.23;14.68;;;6.30;99.90;;;;;;5092202;28;20496;-60
2022/11/12 05:34:40;;;;;;;21.27;14.13;;;6.20;99.90;;;;;;5092406;28;20040;-61
2022/11/12 05:37:10;;;;;;;22.70;15.48;;;6.30;99.90;;;;;;5092581;28;20046;-60
2022/11/12 05:39:36;;;;;;;21.20;14.85;;;6.30;99.90;;;;;;5092262;28;20047;-60
2022/11/12 05:42:02;;;;;;;20.42;15.05;;;6.30;99.90;;;;;;5090556;28;20032;-60
2022/11/12 05:44:28;;;;;;;18.10;13.88;;;6.40;99.90;;;;;;5090073;28;20040;-61
2022/11/12 05:46:54;;;;;;;20.17;14.75;;;6.40;99.90;;;;;;5091057;28;20040;-60
2022/11/12 05:49:19;;;;;;;18.52;14.15;;;6.20;99.90;;;;;;5092383;28;20123;-61
2022/11/12 05:51:45;;;;;;;18.25;14.43;;;6.40;99.90;;;;;;5092187;28;20059;-60
2022/11/12 05:54:11;;;;;;;17.42;14.10;;;6.40;99.90;;;;;;5091974;28;20036;-61
2022/11/12 05:56:37;;;;;;;18.05;14.32;;;6.30;99.90;;;;;;5092092;28;20071;-60
2022/11/12 05:59:05;;;;;;;18.92;13.82;;;6.30;99.90;;;;;;5092151;28;20469;-60
2022/11/12 06:01:31;;;;;;;17.63;13.73;;;6.30;99.90;;;;;;5092392;28;20385;-60
2022/11/12 06:03:57;;;;;;;20.02;14.07;;;6.50;99.90;;;;;;5091733;28;20109;-60
2022/11/12 06:06:23;;;;;;;16.50;12.90;;;6.20;99.90;;;;;;5091887;28;20042;-61
2022/11/12 06:08:49;;;;;;;22.80;14.90;;;6.10;99.90;;;;;;5091760;28;20040;-60
2022/11/12 06:11:15;;;;;;;16.95;12.98;;;6.10;99.90;;;;;;5090885;28;20032;-60
2022/11/12 06:13:41;;;;;;;18.45;13.50;;;6.00;99.90;;;;;;5089490;28;20082;-61
2022/11/12 06:16:07;;;;;;;19.55;13.23;;;6.00;99.90;;;;;;5090831;28;20035;-60
2022/11/12 06:18:33;;;;;;;20.42;13.85;;;6.10;99.90;;;;;;5091968;28;20432;-60
2022/11/12 06:21:18;;;;;;;14.90;12.60;;;6.10;99.90;;;;;;5091614;28;20124;-61
2022/11/12 06:23:45;;;;;;;21.85;15.43;;;5.90;99.90;;;;;;5091998;28;20070;-61
2022/11/12 06:26:11;;;;;;;17.42;13.32;;;5.90;99.90;;;;;;5091758;28;20044;-60
2022/11/12 06:28:36;;;;;;;16.40;14.02;;;5.90;99.90;;;;;;5091831;28;20040;-60
2022/11/12 06:31:02;;;;;;;21.73;13.95;;;5.90;99.90;;;;;;5092188;28;20108;-60
2022/11/12 06:33:28;;;;;;;15.52;12.75;;;5.80;99.90;;;;;;5095869;28;20462;-60
2022/11/12 06:36:03;;;;;;;20.05;13.65;;;5.90;99.90;;;;;;5096027;28;20040;-60
2022/11/12 06:38:30;;;;;;;16.75;12.98;;;5.80;99.90;;;;;;5077804;28;20088;-60
2022/11/12 06:40:56;;;;;;;18.75;11.63;;;5.80;99.90;;;;;;5095158;28;20541;-60
2022/11/12 06:43:22;;;;;;;15.25;11.88;;;5.70;99.90;;;;;;5094518;28;20157;-60
2022/11/12 06:45:48;;;;;;;17.45;11.77;;;5.70;99.90;;;;;;5093880;28;20028;-60
2022/11/12 06:48:14;;;;;;;18.75;12.73;;;5.70;99.90;;;;;;5095378;28;20047;-60
2022/11/12 06:50:39;;;;;;;14.43;11.20;;;5.80;99.90;;;;;;5095623;28;20046;-60
2022/11/12 06:53:05;;;;;;;11.85;10.43;;;5.70;99.90;;;;;;5095502;28;20047;-60
2022/11/12 06:55:31;;;;;;;75.65;14.35;;;5.90;99.90;;;;;;5095474;28;20081;-60
2022/11/12 06:57:56;;;;;;;23.65;11.57;;;5.90;99.90;;;;;;5095370;28;20424;-60
2022/11/12 07:00:22;;;;;;;79.82;14.77;;;5.90;99.90;;;;;;5095300;28;20035;-60
2022/11/12 07:02:48;;;;;;;17.48;10.35;;;5.90;99.90;;;;;;5095173;28;20036;-60
2022/11/12 07:05:13;;;;;;;15.60;10.52;;;5.90;99.90;;;;;;5095352;28;20040;-60
2022/11/12 07:07:39;;;;;;;22.77;10.55;;;6.00;99.90;;;;;;5095235;28;20035;-60
2022/11/12 07:10:05;;;;;;;23.13;11.02;;;5.90;99.90;;;;;;5095270;28;20479;-60
2022/11/12 07:12:31;;;;;;;12.68;11.15;;;5.80;99.90;;;;;;5093320;28;20127;-60
2022/11/12 07:14:56;;;;;;;15.10;12.50;;;5.80;99.90;;;;;;5093046;28;20488;-60
2022/11/12 07:17:22;;;;;;;24.25;12.25;;;5.80;99.90;;;;;;5093342;28;20032;-60
2022/11/12 07:19:47;;;;;;;19.55;12.57;;;5.80;99.90;;;;;;5095066;28;20028;-60
2022/11/12 07:22:13;;;;;;;19.05;12.05;;;5.90;99.90;;;;;;5095054;28;20038;-60
2022/11/12 07:24:39;;;;;;;33.03;12.60;;;6.00;99.90;;;;;;5094860;28;20044;-60
2022/11/12 07:27:04;;;;;;;45.13;13.45;;;6.00;99.90;;;;;;5094780;28;20040;-60
2022/11/12 07:29:30;;;;;;;33.22;13.45;;;5.90;99.90;;;;;;5094770;28;20036;-60
2022/11/12 07:31:55;;;;;;;26.13;11.93;;;5.90;99.90;;;;;;5094534;28;20101;-60
2022/11/12 07:34:21;;;;;;;92.32;16.42;;;6.00;99.90;;;;;;5094768;28;20457;-59
2022/11/12 07:36:50;;;;;;;105.80;15.95;;;5.90;99.90;;;;;;5095123;28;20458;-60
2022/11/12 07:39:16;;;;;;;21.25;12.18;;;5.80;99.90;;;;;;5094859;28;20039;-60
2022/11/12 07:41:41;;;;;;;100.03;16.00;;;5.90;99.90;;;;;;5093708;28;20129;-60
2022/11/12 07:44:07;;;;;;;40.10;14.77;;;6.00;99.90;;;;;;5092667;28;20040;-59
2022/11/12 07:46:33;;;;;;;135.38;21.30;;;6.10;99.90;;;;;;5092662;28;20036;-60
2022/11/12 07:48:58;;;;;;;147.18;22.83;;;6.20;99.90;;;;;;5094103;28;20044;-60
2022/11/12 07:51:26;;;;;;;138.70;21.70;;;6.10;99.90;;;;;;5094467;28;20498;-61
2022/11/12 07:53:53;;;;;;;106.28;19.85;;;6.20;99.90;;;;;;5094318;28;20454;-60
2022/11/12 07:56:20;;;;;;;81.93;17.67;;;6.20;99.90;;;;;;5094093;28;20086;-60
2022/11/12 07:58:47;;;;;;;207.55;27.45;;;6.30;99.90;;;;;;5072704;28;20106;-61
2022/11/12 08:01:32;;;;;;;132.48;21.65;;;6.30;99.90;;;;;;5072797;28;20083;-60
2022/11/12 08:03:59;;;;;;;118.00;21.10;;;6.30;99.90;;;;;;5072775;28;20494;-60
2022/11/12 08:06:26;;;;;;;54.40;18.02;;;6.20;99.90;;;;;;5072746;28;20050;-61
2022/11/12 08:08:56;;;;;;;69.57;17.35;;;6.40;99.90;;;;;;5072743;28;20044;-60
2022/11/12 08:11:22;;;;;;;48.20;18.35;;;6.30;99.90;;;;;;5071924;28;20090;-60
2022/11/12 08:13:48;;;;;;;57.25;19.73;;;6.30;99.90;;;;;;5063269;28;20114;-60
2022/11/12 08:16:14;;;;;;;131.57;23.48;;;6.40;99.90;;;;;;5052957;28;20039;-60
2022/11/12 08:18:41;;;;;;;77.13;21.00;;;6.50;99.90;;;;;;5072407;28;20413;-59
2022/11/12 08:21:10;;;;;;;154.80;26.58;;;6.50;99.90;;;;;;5072439;28;20541;-60
2022/11/12 08:23:35;;;;;;;145.27;26.83;;;6.60;99.90;;;;;;5072597;28;20036;-60
2022/11/12 08:26:03;;;;;;;47.85;21.17;;;6.60;99.90;;;;;;5072351;28;20039;-60
2022/11/12 08:28:30;;;;;;;66.13;24.02;;;6.60;99.90;;;;;;5072261;28;20505;-60
2022/11/12 08:30:57;;;;;;;111.35;24.25;;;6.70;99.90;;;;;;5072552;28;20036;-60
2022/11/12 08:33:22;;;;;;;75.63;25.50;;;6.90;99.90;;;;;;5054190;28;20429;-60
2022/11/12 08:35:49;;;;;;;65.57;24.17;;;6.90;99.90;;;;;;5072276;28;20041;-60
2022/11/12 08:38:15;;;;;;;71.28;22.75;;;7.00;99.90;;;;;;5072089;28;20110;-60
2022/11/12 08:40:41;;;;;;;92.15;28.05;;;6.90;99.90;;;;;;5072136;28;20040;-60
2022/11/12 08:43:08;;;;;;;78.28;25.27;;;7.10;99.90;;;;;;5071254;28;20047;-60
2022/11/12 08:45:36;;;;;;;89.47;26.58;;;7.00;99.90;;;;;;5070899;28;20593;-60
2022/11/12 08:48:08;;;;;;;68.30;24.80;;;7.10;99.90;;;;;;5049654;28;20075;-60
2022/11/12 08:50:35;;;;;;;59.95;25.10;;;7.30;99.90;;;;;;5033867;28;20081;-60
2022/11/12 08:53:08;;;;;;;68.30;25.80;;;7.20;99.90;;;;;;5053969;28;20067;-60
2022/11/12 08:55:34;;;;;;;85.15;28.10;;;7.20;99.90;;;;;;5069744;28;20107;-60
2022/11/12 08:58:01;;;;;;;99.75;27.70;;;7.50;99.90;;;;;;5047667;28;1070758;-60
2022/11/12 09:00:38;;;;;;;70.53;25.30;;;7.30;99.90;;;;;;5093291;28;20531;-60
2022/11/12 09:03:06;;;;;;;108.13;29.15;;;7.50;99.90;;;;;;5093029;28;20028;-60
2022/11/12 09:05:33;;;;;;;70.35;25.80;;;7.40;99.90;;;;;;5092776;28;20058;-60
2022/11/12 09:08:01;;;;;;;82.63;27.73;;;7.50;99.90;;;;;;5092810;28;20544;-60
2022/11/12 09:10:27;;;;;;;108.63;29.67;;;7.70;99.90;;;;;;5092901;28;20102;-60
2022/11/12 09:12:53;;;;;;;74.53;29.45;;;7.60;99.90;;;;;;5092712;28;20116;-60
2022/11/12 09:15:20;;;;;;;94.32;29.33;;;7.60;99.90;;;;;;5090829;28;20473;-60
2022/11/12 09:17:45;;;;;;;83.22;29.70;;;7.80;99.90;;;;;;5091956;28;20111;-60
2022/11/12 09:20:11;;;;;;;99.30;30.50;;;7.80;99.90;;;;;;5092617;28;20119;-60
2022/11/12 09:22:37;;;;;;;93.53;30.98;;;7.90;99.90;;;;;;5092681;28;20044;-61
2022/11/12 09:25:02;;;;;;;163.57;32.92;;;8.00;99.90;;;;;;5092769;28;20048;-60
2022/11/12 09:27:28;;;;;;;125.38;32.55;;;8.00;99.90;;;;;;5092662;28;20466;-60
2022/11/12 09:29:54;;;;;;;125.45;30.77;;;8.00;99.90;;;;;;5092717;28;20050;-60
2022/11/12 09:32:20;;;;;;;124.57;31.48;;;8.20;99.90;;;;;;5092282;28;20044;-60
2022/11/12 09:34:45;;;;;;;196.73;37.33;;;8.10;99.90;;;;;;5092982;28;20451;-61
2022/11/12 09:37:11;;;;;;;88.93;30.45;;;8.20;99.90;;;;;;5092413;28;20032;-61
2022/11/12 09:39:37;;;;;;;132.13;31.95;;;8.10;99.90;;;;;;5092486;28;20437;-60
2022/11/12 09:42:08;;;;;;;77.10;28.98;;;8.20;99.90;;;;;;5091985;28;20070;-60
2022/11/12 09:44:38;;;;;;;89.97;30.85;;;8.30;99.90;;;;;;5089980;28;20596;-61
2022/11/12 09:47:16;;;;;;;109.43;31.13;;;8.40;99.90;;;;;;5091071;28;20028;-60
2022/11/12 09:49:53;;;;;;;130.50;34.17;;;8.40;99.90;;;;;;5092161;28;20083;-60
2022/11/12 09:52:28;;;;;;;118.53;30.92;;;8.30;99.90;;;;;;5092270;28;20115;-60
2022/11/12 09:55:24;;;;;;;77.35;29.15;;;8.20;99.90;;;;;;5092048;28;20044;-60
2022/11/12 09:57:50;;;;;;;80.93;27.92;;;8.20;99.90;;;;;;5002873;28;20432;-60
2022/11/12 10:00:18;;;;;;;92.40;28.45;;;8.20;99.90;;;;;;5010078;28;20401;-61
2022/11/12 10:03:04;;;;;;;64.55;27.40;;;8.20;99.90;;;;;;5010026;28;20045;-61
2022/11/12 10:05:35;;;;;;;94.70;29.08;;;8.20;99.90;;;;;;5009916;28;20407;-61
2022/11/12 10:08:23;;;;;;;108.38;31.60;;;8.40;99.90;;;;;;5009961;28;20049;-61
2022/11/12 10:11:00;;;;;;;90.55;31.23;;;8.30;99.90;;;;;;5010160;28;20081;-60
2022/11/12 10:14:03;;;;;;;62.80;27.67;;;8.30;99.90;;;;;;4991624;28;20049;-61
2022/11/12 10:17:06;;;;;;;57.38;28.13;;;8.40;99.90;;;;;;5000192;28;20042;-61
2022/11/12 10:19:35;;;;;;;87.43;30.60;;;8.30;99.90;;;;;;4989943;28;20039;-60
2022/11/12 10:22:06;;;;;;;92.45;29.77;;;8.40;99.90;;;;;;4974134;28;20050;-61
2022/11/12 10:24:37;;;;;;;77.35;30.10;;;8.30;99.90;;;;;;4990217;28;20049;-61
2022/11/12 10:27:19;;;;;;;62.90;26.60;;;8.40;99.90;;;;;;4990071;28;20076;-61
2022/11/12 10:29:53;;;;;;;57.10;26.83;;;8.40;99.90;;;;;;4990042;28;20053;-61
2022/11/12 10:32:18;;;;;;;61.10;27.55;;;8.40;99.90;;;;;;4990178;28;20061;-60
2022/11/12 10:34:44;;;;;;;98.40;30.05;;;8.40;99.90;;;;;;5035057;28;20505;-61
2022/11/12 10:37:16;;;;;;;60.13;29.17;;;8.40;99.90;;;;;;5091664;28;20075;-62
2022/11/12 10:39:46;;;;;;;54.50;26.27;;;8.40;99.90;;;;;;5091842;28;20040;-61
2022/11/12 10:42:20;;;;;;;93.10;30.75;;;8.40;99.90;;;;;;5091385;28;20093;-60
2022/11/12 10:44:47;;;;;;;49.88;25.85;;;8.30;99.90;;;;;;5090591;28;20117;-61
2022/11/12 10:47:18;;;;;;;73.00;29.02;;;8.40;99.90;;;;;;5090614;28;20044;-61
2022/11/12 10:49:57;;;;;;;68.60;29.55;;;8.50;99.90;;;;;;5091579;28;20127;-61
2022/11/12 10:52:23;;;;;;;65.75;24.92;;;8.50;99.90;;;;;;5091773;28;20115;-61
2022/11/12 10:55:15;;;;;;;42.50;25.33;;;8.50;99.90;;;;;;5091452;28;20032;-60
2022/11/12 10:57:41;;;;;;;69.22;26.10;;;8.60;99.90;;;;;;5091515;28;20052;-60
2022/11/12 11:00:12;;;;;;;46.15;24.15;;;8.60;99.90;;;;;;5091417;28;20052;-61
2022/11/12 11:02:52;;;;;;;53.67;25.17;;;8.60;99.90;;;;;;5073664;28;20036;-60
2022/11/12 11:05:51;;;;;;;52.38;25.33;;;8.60;99.90;;;;;;5091401;28;20047;-60
2022/11/12 11:08:35;;;;;;;59.58;27.05;;;8.60;99.90;;;;;;5091223;28;20221;-61
2022/11/12 11:11:16;;;;;;;43.25;23.65;;;8.50;99.90;;;;;;5091271;28;20568;-60
2022/11/12 11:13:43;;;;;;;39.95;22.10;;;8.70;99.90;;;;;;5106716;28;20040;-60
2022/11/12 11:16:14;;;;;;;37.85;24.10;;;8.60;99.90;;;;;;5111559;28;20039;-61
2022/11/12 11:18:44;;;;;;;38.03;23.77;;;8.70;99.90;;;;;;5114573;28;20048;-61
2022/11/12 11:21:33;;;;;;;70.20;27.60;;;8.60;99.90;;;;;;5115303;28;20044;-61
2022/11/12 11:23:59;;;;;;;50.10;24.98;;;8.60;99.90;;;;;;5115268;28;20114;-60
2022/11/12 11:27:22;;;;;;;41.40;24.55;;;8.70;99.90;;;;;;5115576;28;20118;-61
2022/11/12 11:30:12;;;;;;;42.30;25.80;;;8.70;99.90;;;;;;5012494;28;20054;-61
2022/11/12 11:32:43;;;;;;;67.75;29.00;;;8.70;99.90;;;;;;5012444;28;20134;-61
2022/11/12 11:35:41;;;;;;;40.90;24.75;;;8.70;99.90;;;;;;5012543;28;20148;-61
2022/11/12 11:38:29;;;;;;;41.78;24.60;;;8.70;99.90;;;;;;5012559;28;20041;-61
2022/11/12 11:41:09;;;;;;;42.90;24.40;;;8.70;99.90;;;;;;5012461;28;20045;-61
2022/11/12 11:44:05;;;;;;;41.50;25.80;;;8.90;99.90;;;;;;5012467;28;20049;-60
2022/11/12 11:46:56;;;;;;;47.78;28.38;;;8.90;99.90;;;;;;4973121;28;20046;-61
2022/11/12 11:49:28;;;;;;;67.93;29.23;;;9.00;99.90;;;;;;4973223;28;20046;-61
2022/11/12 11:52:26;;;;;;;46.85;25.85;;;8.90;99.90;;;;;;4973251;28;20062;-61
2022/11/12 11:55:16;;;;;;;38.15;26.40;;;8.90;99.90;;;;;;4973114;28;20469;-60
2022/11/12 11:57:48;;;;;;;41.85;27.05;;;9.10;99.90;;;;;;4972919;28;20148;-61
2022/11/12 12:00:13;;;;;;;52.80;26.73;;;9.00;99.90;;;;;;4964933;28;20041;-61
2022/11/12 12:02:48;;;;;;;48.83;27.38;;;8.90;99.90;;;;;;5051487;28;20112;-61
2022/11/12 12:05:26;;;;;;;37.30;26.45;;;8.90;99.90;;;;;;5051716;28;20048;-60
2022/11/12 12:08:02;;;;;;;40.50;26.42;;;8.90;99.90;;;;;;5051662;28;20041;-60
2022/11/12 12:10:48;;;;;;;42.97;26.00;;;8.90;99.90;;;;;;5051412;28;20629;-60
2022/11/12 12:13:19;;;;;;;43.85;26.35;;;9.00;99.90;;;;;;5051463;28;20078;-60
2022/11/12 12:16:02;;;;;;;39.70;26.67;;;9.00;99.90;;;;;;5051563;28;20162;-60
2022/11/12 12:18:46;;;;;;;34.17;25.92;;;9.00;99.90;;;;;;5051501;28;20056;-61
2022/11/12 12:21:16;;;;;;;39.85;27.63;;;9.00;99.90;;;;;;5051399;28;20395;-60
2022/11/12 12:23:51;;;;;;;41.10;26.92;;;9.10;99.90;;;;;;5090101;28;20043;-60
2022/11/12 12:26:26;;;;;;;36.15;26.92;;;9.10;99.90;;;;;;5114222;28;20122;-61
2022/11/12 12:29:01;;;;;;;38.45;27.35;;;9.10;99.90;;;;;;5113098;28;20044;-61
2022/11/12 12:31:32;;;;;;;42.45;28.67;;;9.10;99.90;;;;;;5114013;28;20059;-61
2022/11/12 12:34:20;;;;;;;36.72;26.67;;;9.10;99.90;;;;;;5113782;28;20043;-61
2022/11/12 12:36:50;;;;;;;39.50;27.50;;;9.10;99.90;;;;;;5113881;28;20043;-62
2022/11/12 12:39:35;;;;;;;39.72;26.90;;;9.30;99.90;;;;;;5113845;28;20050;-61
2022/11/12 12:42:04;;;;;;;40.85;27.42;;;9.30;99.90;;;;;;5095145;28;20048;-61
2022/11/12 12:47:22;;;;;;;47.85;28.40;;;9.30;99.90;;;;;;5113693;28;20048;-61
2022/11/12 12:49:49;;;;;;;34.95;26.75;;;9.30;99.90;;;;;;5113624;28;20493;-61
2022/11/12 12:52:15;;;;;;;35.10;26.33;;;9.30;99.90;;;;;;5113435;28;20084;-61
2022/11/12 12:54:41;;;;;;;41.40;27.40;;;9.40;99.90;;;;;;5109290;28;20035;-61
2022/11/12 12:57:38;;;;;;;39.17;27.17;;;9.40;99.90;;;;;;5099978;28;20491;-61
2022/11/12 13:00:35;;;;;;;35.03;26.45;;;9.50;99.90;;;;;;5005839;28;20042;-61
2022/11/12 13:03:01;;;;;;;37.53;28.27;;;9.50;99.90;;;;;;4990155;28;20501;-61
2022/11/12 13:05:36;;;;;;;42.28;28.48;;;9.40;99.90;;;;;;4991264;28;20504;-61
2022/11/12 13:08:17;;;;;;;35.85;27.27;;;9.50;99.90;;;;;;4991292;28;20397;-61
2022/11/12 13:10:46;;;;;;;35.72;27.30;;;9.50;99.90;;;;;;4991380;28;20061;-61
2022/11/12 13:13:17;;;;;;;37.63;27.70;;;9.50;99.90;;;;;;4974246;28;20049;-61